createdAt,value
2018-12-07T00:00:52.890Z,11.13
2018-12-07T00:01:52.831Z,11.03
2018-12-07T00:02:52.774Z,11.17
2018-12-07T00:03:52.716Z,11.13
2018-12-07T00:04:52.661Z,11.11
2018-12-07T00:05:52.600Z,11.11
2018-12-07T00:06:52.546Z,11.10
2018-12-07T00:07:52.485Z,11.16
2018-12-07T00:08:52.427Z,11.13
2018-12-07T00:09:52.370Z,11.14
2018-12-07T00:10:52.312Z,11.14
2018-12-07T00:11:52.253Z,11.11
2018-12-07T00:12:52.197Z,11.06
2018-12-07T00:13:52.138Z,11.16
2018-12-07T00:14:52.079Z,11.11
2018-12-07T00:15:52.023Z,11.11
2018-12-07T00:16:51.965Z,11.07
2018-12-07T00:17:51.905Z,11.09
2018-12-07T00:18:51.849Z,11.10
2018-12-07T00:19:51.791Z,11.13
2018-12-07T00:20:51.735Z,11.13
2018-12-07T00:21:51.676Z,11.17
2018-12-07T00:22:51.617Z,11.16
2018-12-07T00:23:51.560Z,11.10
2018-12-07T00:24:51.503Z,11.16
2018-12-07T00:25:51.443Z,11.10
2018-12-07T00:26:51.390Z,11.11
2018-12-07T00:27:51.332Z,11.13
2018-12-07T00:28:51.271Z,11.14
2018-12-07T00:29:51.213Z,11.06
2018-12-07T00:30:51.154Z,11.13
2018-12-07T00:31:51.097Z,11.14
2018-12-07T00:32:51.040Z,11.17
2018-12-07T00:33:50.981Z,11.16
2018-12-07T00:34:50.924Z,11.11
2018-12-07T00:35:50.866Z,11.06
2018-12-07T00:36:50.810Z,11.17
2018-12-07T00:37:50.751Z,11.17
2018-12-07T00:38:50.696Z,11.11
2018-12-07T00:39:50.635Z,11.17
2018-12-07T00:40:50.578Z,11.10
2018-12-07T00:41:50.521Z,11.16
2018-12-07T00:42:50.462Z,11.10
2018-12-07T00:43:50.406Z,11.11
2018-12-07T00:44:50.348Z,11.17
2018-12-07T00:45:50.290Z,11.11
2018-12-07T00:46:50.231Z,11.20
2018-12-07T00:47:50.180Z,11.07
2018-12-07T00:48:50.118Z,11.10
2018-12-07T00:49:50.058Z,11.11
2018-12-07T00:50:50.000Z,11.11
2018-12-07T00:51:49.942Z,11.17
2018-12-07T00:52:49.885Z,11.16
2018-12-07T00:53:49.826Z,11.11
2018-12-07T00:54:49.775Z,11.11
2018-12-07T00:55:49.828Z,11.21
2018-12-07T00:56:49.654Z,11.11
2018-12-07T00:57:49.597Z,11.16
2018-12-07T00:58:49.539Z,11.21
2018-12-07T00:59:49.481Z,11.10
2018-12-07T01:00:49.423Z,11.21
2018-12-07T01:01:49.364Z,11.19
2018-12-07T01:02:49.307Z,11.13
2018-12-07T01:03:49.251Z,11.21
2018-12-07T01:04:49.192Z,11.13
2018-12-07T01:05:49.137Z,11.14
2018-12-07T01:06:49.075Z,11.20
2018-12-07T01:07:49.018Z,11.16
2018-12-07T01:08:48.965Z,11.19
2018-12-07T01:09:48.902Z,11.14
2018-12-07T01:10:48.847Z,11.21
2018-12-07T01:11:48.787Z,11.11
2018-12-07T01:12:48.731Z,11.17
2018-12-07T01:13:48.671Z,11.16
2018-12-07T01:14:48.613Z,11.13
2018-12-07T01:15:48.558Z,11.16
2018-12-07T01:16:48.499Z,11.14
2018-12-07T01:17:48.442Z,11.19
2018-12-07T01:18:48.383Z,11.17
2018-12-07T01:19:48.327Z,11.13
2018-12-07T01:20:48.273Z,11.16
2018-12-07T01:21:48.214Z,11.20
2018-12-07T01:22:48.153Z,11.19
2018-12-07T01:23:48.095Z,11.13
2018-12-07T01:24:48.037Z,11.24
2018-12-07T01:25:47.979Z,11.11
2018-12-07T01:26:47.921Z,11.20
2018-12-07T01:27:47.863Z,11.17
2018-12-07T01:28:47.810Z,11.14
2018-12-07T01:29:47.818Z,11.13
2018-12-07T01:30:47.690Z,11.20
2018-12-07T01:31:47.635Z,11.21
2018-12-07T01:32:47.576Z,11.14
2018-12-07T01:33:47.517Z,11.16
2018-12-07T01:34:47.461Z,11.13
2018-12-07T01:35:47.405Z,11.13
2018-12-07T01:36:47.344Z,11.24
2018-12-07T01:37:47.287Z,11.16
2018-12-07T01:38:47.229Z,11.21
2018-12-07T01:39:47.173Z,11.19
2018-12-07T01:40:47.116Z,11.14
2018-12-07T01:41:47.060Z,11.16
2018-12-07T01:42:46.998Z,11.13
2018-12-07T01:43:46.940Z,11.20
2018-12-07T01:44:46.884Z,11.17
2018-12-07T01:45:46.824Z,11.14
2018-12-07T01:46:46.767Z,11.16
2018-12-07T01:47:46.710Z,11.25
2018-12-07T01:48:46.650Z,11.14
2018-12-07T01:49:46.594Z,11.19
2018-12-07T01:50:46.535Z,11.17
2018-12-07T01:51:46.477Z,11.25
2018-12-07T01:52:46.422Z,11.19
2018-12-07T01:53:46.362Z,11.14
2018-12-07T01:54:46.305Z,11.13
2018-12-07T01:55:46.247Z,11.16
2018-12-07T01:56:46.189Z,11.20
2018-12-07T01:57:46.131Z,11.21
2018-12-07T01:58:46.074Z,11.20
2018-12-07T01:59:46.015Z,11.14
2018-12-07T02:00:45.960Z,11.20
2018-12-07T02:01:45.901Z,11.24
2018-12-07T02:02:45.845Z,11.21
2018-12-07T02:03:45.785Z,11.24
2018-12-07T02:04:45.728Z,11.21
2018-12-07T02:05:45.670Z,11.16
2018-12-07T02:06:45.612Z,11.16
2018-12-07T02:07:45.554Z,11.21
2018-12-07T02:08:45.497Z,11.19
2018-12-07T02:09:45.438Z,11.21
2018-12-07T02:10:45.384Z,11.14
2018-12-07T02:11:45.323Z,11.24
2018-12-07T02:12:45.268Z,11.24
2018-12-07T02:13:45.207Z,11.24
2018-12-07T02:14:45.153Z,11.27
2018-12-07T02:15:45.094Z,11.19
2018-12-07T02:16:45.035Z,11.21
2018-12-07T02:17:44.977Z,11.16
2018-12-07T02:18:44.922Z,11.17
2018-12-07T02:19:44.861Z,11.24
2018-12-07T02:20:44.807Z,11.27
2018-12-07T02:21:44.746Z,11.28
2018-12-07T02:22:44.692Z,11.27
2018-12-07T02:23:44.631Z,11.16
2018-12-07T02:24:44.574Z,11.21
2018-12-07T02:25:44.516Z,11.25
2018-12-07T02:26:44.457Z,11.29
2018-12-07T02:27:44.403Z,11.29
2018-12-07T02:28:44.342Z,11.27
2018-12-07T02:29:44.288Z,11.19
2018-12-07T02:30:44.230Z,11.17
2018-12-07T02:31:44.169Z,11.27
2018-12-07T02:32:44.114Z,11.25
2018-12-07T02:33:44.054Z,11.31
2018-12-07T02:34:43.998Z,11.29
2018-12-07T02:35:43.942Z,11.27
2018-12-07T02:36:43.882Z,11.25
2018-12-07T02:37:43.823Z,11.28
2018-12-07T02:38:43.766Z,11.31
2018-12-07T02:39:43.709Z,11.25
2018-12-07T02:40:43.652Z,11.27
2018-12-07T02:41:43.595Z,11.25
2018-12-07T02:42:43.544Z,11.25
2018-12-07T02:43:43.479Z,11.31
2018-12-07T02:44:43.421Z,11.24
2018-12-07T02:45:43.362Z,11.28
2018-12-07T02:46:43.306Z,11.25
2018-12-07T02:47:43.250Z,11.25
2018-12-07T02:48:43.190Z,11.35
2018-12-07T02:49:43.131Z,11.34
2018-12-07T02:50:43.075Z,11.28
2018-12-07T02:51:43.016Z,11.25
2018-12-07T02:52:42.958Z,11.27
2018-12-07T02:53:42.901Z,11.25
2018-12-07T02:54:42.843Z,11.28
2018-12-07T02:55:42.786Z,11.27
2018-12-07T02:56:42.728Z,11.25
2018-12-07T02:57:42.670Z,11.27
2018-12-07T02:58:42.614Z,11.31
2018-12-07T02:59:42.556Z,11.29
2018-12-07T03:00:42.503Z,11.32
2018-12-07T03:01:42.439Z,11.34
2018-12-07T03:02:42.381Z,11.27
2018-12-07T03:03:42.325Z,11.31
2018-12-07T03:04:42.271Z,11.38
2018-12-07T03:05:42.208Z,11.32
2018-12-07T03:06:42.151Z,11.29
2018-12-07T03:07:42.093Z,11.28
2018-12-07T03:08:42.035Z,11.29
2018-12-07T03:09:41.978Z,11.31
2018-12-07T03:10:41.921Z,11.41
2018-12-07T03:11:41.864Z,11.34
2018-12-07T03:12:41.810Z,11.35
2018-12-07T03:13:41.746Z,11.38
2018-12-07T03:14:41.690Z,11.35
2018-12-07T03:15:41.633Z,11.31
2018-12-07T03:16:41.580Z,11.38
2018-12-07T03:17:41.516Z,11.35
2018-12-07T03:18:41.459Z,11.25
2018-12-07T03:19:41.406Z,11.32
2018-12-07T03:20:41.345Z,11.39
2018-12-07T03:21:41.286Z,11.32
2018-12-07T03:22:41.228Z,11.29
2018-12-07T03:23:41.172Z,11.34
2018-12-07T03:24:41.114Z,11.41
2018-12-07T03:25:41.057Z,11.32
2018-12-07T03:26:41.072Z,11.34
2018-12-07T03:27:40.941Z,11.34
2018-12-07T03:28:40.883Z,11.31
2018-12-07T03:29:40.824Z,11.32
2018-12-07T03:30:40.770Z,11.34
2018-12-07T03:31:40.715Z,11.38
2018-12-07T03:32:40.656Z,11.34
2018-12-07T03:33:40.597Z,11.32
2018-12-07T03:34:40.535Z,11.35
2018-12-07T03:35:40.481Z,11.29
2018-12-07T03:36:40.423Z,11.32
2018-12-07T03:37:40.363Z,11.29
2018-12-07T03:38:40.306Z,11.31
2018-12-07T03:39:40.249Z,11.34
2018-12-07T03:40:40.191Z,11.38
2018-12-07T03:41:40.134Z,11.36
2018-12-07T03:42:40.075Z,11.38
2018-12-07T03:43:40.018Z,11.38
2018-12-07T03:44:39.962Z,11.35
2018-12-07T03:45:39.904Z,11.36
2018-12-07T03:46:39.847Z,11.35
2018-12-07T03:47:39.790Z,11.36
2018-12-07T03:48:39.730Z,11.32
2018-12-07T03:49:39.672Z,11.35
2018-12-07T03:50:39.614Z,11.29
2018-12-07T03:51:39.559Z,11.36
2018-12-07T03:52:39.501Z,11.35
2018-12-07T03:53:39.442Z,11.32
2018-12-07T03:54:39.391Z,11.29
2018-12-07T03:55:39.330Z,11.39
2018-12-07T03:56:39.269Z,11.35
2018-12-07T03:57:39.211Z,11.39
2018-12-07T03:58:39.153Z,11.36
2018-12-07T03:59:39.096Z,11.31
2018-12-07T04:00:39.040Z,11.29
2018-12-07T04:01:38.984Z,11.35
2018-12-07T04:02:38.924Z,11.36
2018-12-07T04:03:38.867Z,11.34
2018-12-07T04:04:38.809Z,11.35
2018-12-07T04:05:38.752Z,11.38
2018-12-07T04:06:38.692Z,11.32
2018-12-07T04:07:38.635Z,11.34
2018-12-07T04:08:38.577Z,11.35
2018-12-07T04:09:38.532Z,11.35
2018-12-07T04:10:38.463Z,11.32
2018-12-07T04:11:38.405Z,11.36
2018-12-07T04:12:38.348Z,11.32
2018-12-07T04:13:38.290Z,11.35
2018-12-07T04:14:38.237Z,11.34
2018-12-07T04:15:38.175Z,11.35
2018-12-07T04:16:38.118Z,11.34
2018-12-07T04:17:38.060Z,11.39
2018-12-07T04:18:38.002Z,11.35
2018-12-07T04:19:37.945Z,11.32
2018-12-07T04:20:37.888Z,11.34
2018-12-07T04:21:37.828Z,11.34
2018-12-07T04:22:37.771Z,11.32
2018-12-07T04:23:37.718Z,11.32
2018-12-07T04:24:37.661Z,11.29
2018-12-07T04:25:37.599Z,11.38
2018-12-07T04:26:37.542Z,11.35
2018-12-07T04:27:37.484Z,11.38
2018-12-07T04:28:37.429Z,11.38
2018-12-07T04:29:37.369Z,11.35
2018-12-07T04:30:37.311Z,11.34
2018-12-07T04:31:37.257Z,11.34
2018-12-07T04:32:37.198Z,11.32
2018-12-07T04:33:37.224Z,11.29
2018-12-07T04:34:37.084Z,11.36
2018-12-07T04:35:37.025Z,11.35
2018-12-07T04:36:36.970Z,11.35
2018-12-07T04:37:36.907Z,11.32
2018-12-07T04:38:36.849Z,11.35
2018-12-07T04:39:36.793Z,11.34
2018-12-07T04:40:36.736Z,11.32
2018-12-07T04:41:36.678Z,11.38
2018-12-07T04:42:36.619Z,11.36
2018-12-07T04:43:36.569Z,11.38
2018-12-07T04:44:36.509Z,11.38
2018-12-07T04:45:36.447Z,11.38
2018-12-07T04:46:36.390Z,11.35
2018-12-07T04:47:36.332Z,11.38
2018-12-07T04:48:36.276Z,11.36
2018-12-07T04:49:36.216Z,11.38
2018-12-07T04:50:36.160Z,11.35
2018-12-07T04:51:36.103Z,11.36
2018-12-07T04:52:36.044Z,11.36
2018-12-07T04:53:35.988Z,11.36
2018-12-07T04:54:35.930Z,11.41
2018-12-07T04:55:35.875Z,11.31
2018-12-07T04:56:35.815Z,11.38
2018-12-07T04:57:35.756Z,11.38
2018-12-07T04:58:35.699Z,11.35
2018-12-07T04:59:35.642Z,11.39
2018-12-07T05:00:35.593Z,11.36
2018-12-07T05:01:35.525Z,11.38
2018-12-07T05:02:35.471Z,11.39
2018-12-07T05:03:35.415Z,11.38
2018-12-07T05:04:35.354Z,11.44
2018-12-07T05:05:35.301Z,11.31
2018-12-07T05:06:35.239Z,11.39
2018-12-07T05:07:35.181Z,11.36
2018-12-07T05:08:35.125Z,11.34
2018-12-07T05:09:35.065Z,11.43
2018-12-07T05:10:35.008Z,11.41
2018-12-07T05:11:34.950Z,11.36
2018-12-07T05:12:34.893Z,11.35
2018-12-07T05:13:34.849Z,11.44
2018-12-07T05:14:34.784Z,11.38
2018-12-07T05:15:34.724Z,11.35
2018-12-07T05:16:34.668Z,11.41
2018-12-07T05:17:34.604Z,11.43
2018-12-07T05:18:34.547Z,11.35
2018-12-07T05:19:34.491Z,11.36
2018-12-07T05:20:34.443Z,11.44
2018-12-07T05:21:34.375Z,11.36
2018-12-07T05:22:34.321Z,11.47
2018-12-07T05:23:34.278Z,11.46
2018-12-07T05:24:34.751Z,11.47
2018-12-07T05:25:34.144Z,11.41
2018-12-07T05:26:34.087Z,11.38
2018-12-07T05:27:34.035Z,11.43
2018-12-07T05:28:33.981Z,11.46
2018-12-07T05:29:33.914Z,11.43
2018-12-07T05:30:33.858Z,11.46
2018-12-07T05:31:33.802Z,11.35
2018-12-07T05:32:33.743Z,11.50
2018-12-07T05:33:33.683Z,11.50
2018-12-07T05:34:33.633Z,11.49
2018-12-07T05:35:33.581Z,11.43
2018-12-07T05:36:33.513Z,11.44
2018-12-07T05:37:33.457Z,11.44
2018-12-07T05:38:33.399Z,11.47
2018-12-07T05:39:33.339Z,11.53
2018-12-07T05:40:33.288Z,11.47
2018-12-07T05:41:33.228Z,11.46
2018-12-07T05:42:33.236Z,11.47
2018-12-07T05:43:33.115Z,11.50
2018-12-07T05:44:33.055Z,11.50
2018-12-07T05:45:32.996Z,11.50
2018-12-07T05:46:32.940Z,11.41
2018-12-07T05:47:32.879Z,11.43
2018-12-07T05:48:32.822Z,11.43
2018-12-07T05:49:32.767Z,11.43
2018-12-07T05:50:32.709Z,11.43
2018-12-07T05:51:32.655Z,11.47
2018-12-07T05:52:32.595Z,11.43
2018-12-07T05:53:32.537Z,11.41
2018-12-07T05:54:32.476Z,11.46
2018-12-07T05:55:32.420Z,11.43
2018-12-07T05:56:32.360Z,11.44
2018-12-07T05:57:32.309Z,11.44
2018-12-07T05:58:32.248Z,11.49
2018-12-07T05:59:32.190Z,11.43
2018-12-07T06:00:32.132Z,11.38
2018-12-07T06:01:32.074Z,11.49
2018-12-07T06:02:32.016Z,11.43
2018-12-07T06:03:31.961Z,11.41
2018-12-07T06:04:31.901Z,11.46
2018-12-07T06:05:31.845Z,11.38
2018-12-07T06:06:31.785Z,11.43
2018-12-07T06:07:31.728Z,11.38
2018-12-07T06:08:31.670Z,11.39
2018-12-07T06:09:31.612Z,11.46
2018-12-07T06:10:31.557Z,11.41
2018-12-07T06:11:31.498Z,11.47
2018-12-07T06:12:31.446Z,11.38
2018-12-07T06:13:31.383Z,11.44
2018-12-07T06:14:31.327Z,11.44
2018-12-07T06:15:31.268Z,11.47
2018-12-07T06:16:31.211Z,11.47
2018-12-07T06:17:31.154Z,11.39
2018-12-07T06:18:31.095Z,11.47
2018-12-07T06:19:31.042Z,11.43
2018-12-07T06:20:30.986Z,11.44
2018-12-07T06:21:30.923Z,11.41
2018-12-07T06:22:30.865Z,11.44
2018-12-07T06:23:30.808Z,11.43
2018-12-07T06:24:30.755Z,11.43
2018-12-07T06:25:30.701Z,11.39
2018-12-07T06:26:30.638Z,11.43
2018-12-07T06:27:30.586Z,11.49
2018-12-07T06:28:30.522Z,11.44
2018-12-07T06:29:30.462Z,11.44
2018-12-07T06:30:30.405Z,11.49
2018-12-07T06:31:30.347Z,11.57
2018-12-07T06:32:36.083Z,11.47
2018-12-07T06:33:30.232Z,11.57
2018-12-07T06:34:30.176Z,11.43
2018-12-07T06:35:30.117Z,11.49
2018-12-07T06:36:30.068Z,11.43
2018-12-07T06:37:30.004Z,11.50
2018-12-07T06:38:29.945Z,11.49
2018-12-07T06:39:29.890Z,11.50
2018-12-07T06:40:29.830Z,11.50
2018-12-07T06:41:29.772Z,11.50
2018-12-07T06:42:29.714Z,11.50
2018-12-07T06:43:29.657Z,11.52
2018-12-07T06:44:29.601Z,11.50
2018-12-07T06:45:29.547Z,11.52
2018-12-07T06:46:29.489Z,11.52
2018-12-07T06:47:29.427Z,11.46
2018-12-07T06:48:29.380Z,11.50
2018-12-07T06:49:29.316Z,11.47
2018-12-07T06:50:29.256Z,11.53
2018-12-07T06:51:29.980Z,11.43
2018-12-07T06:52:29.140Z,11.50
2018-12-07T06:53:29.156Z,11.52
2018-12-07T06:54:29.032Z,11.52
2018-12-07T06:55:28.970Z,11.54
2018-12-07T06:56:28.910Z,11.49
2018-12-07T06:57:28.860Z,11.53
2018-12-07T06:58:28.799Z,11.53
2018-12-07T06:59:28.737Z,11.46
2018-12-07T07:00:28.683Z,11.54
2018-12-07T07:01:28.622Z,11.59
2018-12-07T07:02:28.570Z,11.50
2018-12-07T07:03:28.509Z,11.50
2018-12-07T07:04:28.450Z,11.47
2018-12-07T07:05:28.395Z,11.47
2018-12-07T07:06:28.338Z,11.53
2018-12-07T07:07:28.279Z,11.49
2018-12-07T07:08:28.224Z,11.54
2018-12-07T07:09:28.163Z,11.47
2018-12-07T07:10:28.105Z,11.56
2018-12-07T07:11:28.049Z,11.59
2018-12-07T07:12:29.237Z,11.52
2018-12-07T07:13:27.933Z,11.52
2018-12-07T07:14:27.875Z,11.49
2018-12-07T07:15:27.818Z,11.56
2018-12-07T07:16:27.764Z,11.53
2018-12-07T07:17:27.707Z,11.53
2018-12-07T07:18:27.655Z,11.53
2018-12-07T07:19:27.680Z,11.54
2018-12-07T07:20:27.532Z,11.57
2018-12-07T07:21:27.474Z,11.54
2018-12-07T07:22:27.416Z,11.53
2018-12-07T07:23:27.363Z,11.53
2018-12-07T07:24:27.303Z,11.56
2018-12-07T07:25:27.244Z,11.56
2018-12-07T07:26:27.188Z,11.57
2018-12-07T07:27:27.207Z,11.64
2018-12-07T07:28:27.071Z,11.56
2018-12-07T07:29:27.013Z,11.54
2018-12-07T07:30:26.956Z,11.56
2018-12-07T07:31:26.900Z,11.56
2018-12-07T07:32:26.848Z,11.54
2018-12-07T07:33:26.785Z,11.56
2018-12-07T07:34:26.726Z,11.54
2018-12-07T07:35:26.671Z,11.61
2018-12-07T07:36:26.620Z,11.54
2018-12-07T07:37:26.562Z,11.54
2018-12-07T07:38:26.500Z,11.52
2018-12-07T07:39:26.448Z,11.54
2018-12-07T07:40:26.384Z,11.56
2018-12-07T07:41:26.327Z,11.56
2018-12-07T07:42:26.269Z,11.61
2018-12-07T07:43:26.212Z,11.62
2018-12-07T07:44:26.222Z,11.62
2018-12-07T07:45:26.098Z,11.57
2018-12-07T07:46:26.038Z,11.59
2018-12-07T07:47:25.982Z,11.62
2018-12-07T07:48:26.117Z,11.62
2018-12-07T07:49:25.868Z,11.65
2018-12-07T07:50:25.808Z,11.62
2018-12-07T07:51:25.753Z,11.65
2018-12-07T07:52:25.696Z,11.59
2018-12-07T07:53:25.636Z,11.61
2018-12-07T07:54:25.579Z,11.65
2018-12-07T07:55:25.520Z,11.57
2018-12-07T07:56:25.466Z,11.59
2018-12-07T07:57:25.407Z,11.64
2018-12-07T07:58:25.348Z,11.61
2018-12-07T07:59:25.292Z,11.62
2018-12-07T08:00:25.239Z,11.62
2018-12-07T08:01:25.180Z,11.65
2018-12-07T08:02:25.120Z,11.70
2018-12-07T08:03:25.072Z,11.57
2018-12-07T08:04:25.007Z,11.65
2018-12-07T08:05:24.947Z,11.61
2018-12-07T08:06:24.890Z,11.64
2018-12-07T08:07:24.850Z,11.64
2018-12-07T08:08:24.777Z,11.56
2018-12-07T08:09:24.716Z,11.72
2018-12-07T08:10:24.660Z,11.62
2018-12-07T08:11:24.603Z,11.70
2018-12-07T08:12:24.549Z,11.67
2018-12-07T08:13:24.491Z,11.62
2018-12-07T08:14:24.434Z,11.71
2018-12-07T08:15:24.378Z,11.62
2018-12-07T08:16:24.319Z,11.71
2018-12-07T08:17:24.259Z,11.65
2018-12-07T08:18:24.203Z,11.65
2018-12-07T08:19:24.145Z,11.61
2018-12-07T08:20:24.088Z,11.64
2018-12-07T08:21:24.029Z,11.70
2018-12-07T08:22:23.972Z,11.62
2018-12-07T08:23:23.933Z,11.71
2018-12-07T08:24:23.858Z,11.71
2018-12-07T08:25:23.800Z,11.62
2018-12-07T08:26:23.743Z,11.70
2018-12-07T08:27:23.689Z,11.71
2018-12-07T08:28:23.632Z,11.65
2018-12-07T08:29:23.574Z,11.64
2018-12-07T08:30:23.513Z,11.65
2018-12-07T08:31:23.457Z,11.70
2018-12-07T08:32:23.398Z,11.68
2018-12-07T08:33:23.340Z,11.65
2018-12-07T08:34:23.283Z,11.70
2018-12-07T08:35:23.229Z,11.65
2018-12-07T08:36:23.169Z,11.70
2018-12-07T08:37:23.116Z,11.67
2018-12-07T08:38:23.054Z,11.70
2018-12-07T08:39:22.998Z,11.70
2018-12-07T08:40:22.940Z,11.67
2018-12-07T08:41:22.887Z,11.68
2018-12-07T08:42:22.826Z,11.70
2018-12-07T08:43:22.778Z,11.70
2018-12-07T08:44:22.712Z,11.68
2018-12-07T08:45:22.658Z,11.70
2018-12-07T08:46:22.595Z,11.65
2018-12-07T08:47:22.538Z,11.67
2018-12-07T08:48:22.480Z,11.70
2018-12-07T08:49:22.423Z,11.65
2018-12-07T08:50:22.371Z,11.67
2018-12-07T08:51:22.309Z,11.68
2018-12-07T08:52:22.253Z,11.68
2018-12-07T08:53:22.194Z,11.68
2018-12-07T08:54:22.138Z,11.71
2018-12-07T08:55:22.080Z,11.68
2018-12-07T08:56:22.031Z,11.72
2018-12-07T08:57:21.964Z,11.64
2018-12-07T08:58:21.907Z,11.70
2018-12-07T08:59:21.850Z,11.65
2018-12-07T09:00:21.793Z,11.72
2018-12-07T09:01:21.739Z,11.71
2018-12-07T09:02:21.680Z,11.65
2018-12-07T09:03:21.622Z,11.78
2018-12-07T09:04:21.564Z,11.70
2018-12-07T09:05:21.506Z,11.65
2018-12-07T09:06:21.449Z,11.70
2018-12-07T09:07:21.391Z,11.71
2018-12-07T09:08:21.336Z,11.77
2018-12-07T09:09:21.277Z,11.75
2018-12-07T09:10:21.221Z,11.77
2018-12-07T09:11:21.170Z,11.78
2018-12-07T09:12:21.107Z,11.78
2018-12-07T09:13:21.050Z,11.74
2018-12-07T09:14:20.990Z,11.78
2018-12-07T09:15:20.933Z,11.83
2018-12-07T09:16:20.876Z,11.78
2018-12-07T09:17:20.818Z,11.78
2018-12-07T09:18:20.762Z,11.78
2018-12-07T09:19:20.704Z,11.77
2018-12-07T09:20:20.648Z,11.72
2018-12-07T09:21:20.589Z,11.77
2018-12-07T09:22:20.532Z,11.75
2018-12-07T09:23:20.477Z,11.72
2018-12-07T09:24:20.420Z,11.85
2018-12-07T09:25:20.360Z,11.74
2018-12-07T09:26:20.308Z,11.83
2018-12-07T09:27:20.246Z,11.74
2018-12-07T09:28:20.188Z,11.85
2018-12-07T09:29:20.132Z,11.80
2018-12-07T09:30:20.076Z,11.83
2018-12-07T09:31:20.017Z,11.75
2018-12-07T09:32:19.965Z,11.77
2018-12-07T09:33:19.904Z,11.83
2018-12-07T09:34:19.844Z,11.82
2018-12-07T09:35:19.789Z,11.82
2018-12-07T09:36:19.731Z,11.72
2018-12-07T09:37:19.672Z,11.85
2018-12-07T09:38:19.618Z,11.74
2018-12-07T09:39:19.559Z,11.78
2018-12-07T09:40:19.501Z,11.78
2018-12-07T09:41:19.447Z,11.85
2018-12-07T09:42:19.390Z,11.80
2018-12-07T09:43:19.328Z,11.82
2018-12-07T09:44:19.272Z,11.82
2018-12-07T09:45:19.214Z,11.86
2018-12-07T09:46:19.156Z,11.83
2018-12-07T09:47:19.100Z,11.83
2018-12-07T09:48:19.043Z,11.83
2018-12-07T09:49:18.985Z,11.85
2018-12-07T09:50:18.928Z,11.83
2018-12-07T09:51:18.871Z,11.85
2018-12-07T09:52:18.813Z,11.85
2018-12-07T09:53:18.756Z,11.86
2018-12-07T09:54:18.699Z,11.82
2018-12-07T09:55:18.642Z,11.87
2018-12-07T09:56:18.585Z,11.87
2018-12-07T09:57:18.528Z,11.85
2018-12-07T09:58:18.562Z,11.87
2018-12-07T09:59:18.417Z,11.85
2018-12-07T10:00:18.359Z,11.89
2018-12-07T10:01:19.075Z,11.96
2018-12-07T10:02:18.241Z,11.83
2018-12-07T10:03:18.185Z,11.86
2018-12-07T10:04:18.128Z,11.96
2018-12-07T10:05:18.071Z,11.90
2018-12-07T10:06:18.012Z,11.87
2018-12-07T10:07:17.954Z,11.99
2018-12-07T10:08:17.897Z,11.85
2018-12-07T10:09:17.840Z,11.85
2018-12-07T10:10:17.783Z,11.85
2018-12-07T10:11:17.726Z,11.96
2018-12-07T10:12:17.673Z,11.89
2018-12-07T10:13:17.611Z,11.87
2018-12-07T10:14:17.555Z,11.87
2018-12-07T10:15:17.498Z,11.83
2018-12-07T10:16:17.440Z,11.87
2018-12-07T10:17:17.384Z,11.78
2018-12-07T10:18:17.332Z,11.89
2018-12-07T10:19:17.268Z,11.93
2018-12-07T10:20:17.212Z,11.93
2018-12-07T10:21:17.153Z,11.83
2018-12-07T10:22:17.097Z,11.82
2018-12-07T10:23:17.039Z,11.86
2018-12-07T10:24:16.983Z,11.90
2018-12-07T10:25:16.928Z,11.86
2018-12-07T10:26:16.870Z,11.99
2018-12-07T10:27:16.811Z,11.83
2018-12-07T10:28:16.753Z,11.86
2018-12-07T10:29:16.701Z,11.86
2018-12-07T10:30:16.641Z,11.86
2018-12-07T10:31:16.582Z,11.83
2018-12-07T10:32:16.531Z,11.85
2018-12-07T10:33:16.470Z,11.85
2018-12-07T10:34:16.411Z,11.83
2018-12-07T10:35:16.354Z,11.85
2018-12-07T10:36:16.297Z,11.86
2018-12-07T10:37:16.242Z,11.86
2018-12-07T10:38:16.182Z,11.87
2018-12-07T10:39:16.126Z,11.94
2018-12-07T10:40:16.068Z,11.87
2018-12-07T10:41:16.010Z,11.96
2018-12-07T10:42:15.952Z,11.89
2018-12-07T10:43:15.896Z,11.96
2018-12-07T10:44:15.838Z,11.94
2018-12-07T10:45:15.781Z,12.02
2018-12-07T10:46:15.725Z,12.01
2018-12-07T10:47:15.668Z,11.90
2018-12-07T10:48:15.621Z,12.02
2018-12-07T10:49:15.554Z,11.87
2018-12-07T10:50:15.494Z,12.01
2018-12-07T10:51:15.439Z,12.05
2018-12-07T10:52:15.382Z,12.01
2018-12-07T10:53:15.323Z,11.97
2018-12-07T10:54:15.266Z,11.96
2018-12-07T10:55:15.209Z,11.94
2018-12-07T10:56:15.153Z,11.99
2018-12-07T10:57:15.095Z,11.96
2018-12-07T10:58:15.046Z,11.97
2018-12-07T10:59:14.984Z,11.90
2018-12-07T11:00:14.924Z,11.97
2018-12-07T11:01:14.872Z,11.94
2018-12-07T11:02:14.809Z,12.02
2018-12-07T11:03:14.753Z,11.96
2018-12-07T11:04:14.699Z,11.99
2018-12-07T11:05:14.637Z,11.90
2018-12-07T11:06:14.580Z,11.96
2018-12-07T11:07:14.523Z,11.99
2018-12-07T11:08:14.467Z,11.97
2018-12-07T11:09:14.411Z,12.05
2018-12-07T11:10:14.353Z,12.04
2018-12-07T11:11:14.294Z,12.01
2018-12-07T11:12:14.237Z,12.01
2018-12-07T11:13:14.186Z,11.96
2018-12-07T11:14:14.124Z,11.96
2018-12-07T11:15:14.070Z,12.02
2018-12-07T11:16:14.010Z,11.94
2018-12-07T11:17:13.953Z,11.96
2018-12-07T11:18:13.897Z,11.96
2018-12-07T11:19:13.838Z,12.05
2018-12-07T11:20:13.780Z,11.97
2018-12-07T11:21:13.723Z,11.94
2018-12-07T11:22:13.669Z,11.97
2018-12-07T11:23:13.611Z,11.97
2018-12-07T11:24:13.555Z,11.97
2018-12-07T11:25:13.495Z,12.01
2018-12-07T11:26:13.447Z,12.04
2018-12-07T11:27:13.379Z,11.96
2018-12-07T11:28:13.325Z,11.97
2018-12-07T11:29:13.266Z,12.01
2018-12-07T11:30:13.210Z,11.97
2018-12-07T11:31:13.151Z,11.89
2018-12-07T11:32:13.096Z,11.97
2018-12-07T11:33:13.037Z,11.94
2018-12-07T11:34:12.980Z,11.96
2018-12-07T11:35:12.923Z,12.04
2018-12-07T11:36:12.869Z,11.97
2018-12-07T11:37:12.808Z,11.94
2018-12-07T11:38:12.750Z,11.99
2018-12-07T11:39:12.786Z,11.94
2018-12-07T11:40:12.640Z,12.02
2018-12-07T11:41:12.580Z,11.96
2018-12-07T11:42:12.523Z,11.96
2018-12-07T11:43:12.466Z,11.94
2018-12-07T11:44:12.410Z,11.97
2018-12-07T11:45:12.351Z,12.01
2018-12-07T11:46:12.299Z,11.90
2018-12-07T11:47:12.237Z,11.97
2018-12-07T11:48:12.184Z,11.94
2018-12-07T11:49:12.122Z,11.94
2018-12-07T11:50:12.066Z,11.94
2018-12-07T11:51:13.322Z,11.96
2018-12-07T11:52:11.954Z,11.94
2018-12-07T11:53:11.895Z,11.93
2018-12-07T11:54:11.837Z,11.99
2018-12-07T11:55:11.781Z,12.02
2018-12-07T11:56:11.725Z,11.97
2018-12-07T11:57:11.666Z,11.94
2018-12-07T11:58:11.609Z,11.94
2018-12-07T11:59:11.554Z,11.99
2018-12-07T12:00:11.495Z,12.01
2018-12-07T12:01:11.442Z,11.96
2018-12-07T12:02:11.381Z,12.02
2018-12-07T12:03:11.325Z,12.02
2018-12-07T12:04:11.266Z,11.96
2018-12-07T12:05:11.209Z,11.99
2018-12-07T12:06:11.153Z,12.05
2018-12-07T12:07:11.098Z,12.04
2018-12-07T12:08:11.043Z,11.93
2018-12-07T12:09:11.057Z,11.90
2018-12-07T12:10:10.924Z,11.93
2018-12-07T12:11:10.868Z,12.01
2018-12-07T12:12:10.811Z,11.89
2018-12-07T12:13:10.752Z,11.89
2018-12-07T12:14:10.698Z,11.93
2018-12-07T12:15:10.640Z,11.94
2018-12-07T12:16:10.583Z,11.96
2018-12-07T12:17:10.527Z,12.05
2018-12-07T12:18:10.467Z,12.05
2018-12-07T12:19:10.411Z,12.08
2018-12-07T12:20:10.354Z,12.01
2018-12-07T12:21:10.297Z,11.93
2018-12-07T12:22:10.246Z,12.04
2018-12-07T12:23:10.184Z,12.09
2018-12-07T12:24:10.126Z,12.04
2018-12-07T12:25:10.068Z,12.01
2018-12-07T12:26:10.015Z,12.01
2018-12-07T12:27:09.953Z,12.02
2018-12-07T12:28:10.557Z,12.02
2018-12-07T12:29:09.839Z,11.97
2018-12-07T12:30:09.784Z,12.06
2018-12-07T12:31:09.733Z,12.04
2018-12-07T12:32:09.670Z,12.11
2018-12-07T12:33:09.612Z,12.09
2018-12-07T12:34:09.555Z,12.09
2018-12-07T12:35:09.498Z,12.12
2018-12-07T12:36:16.757Z,12.04
2018-12-07T12:37:09.385Z,12.02
2018-12-07T12:38:09.329Z,12.11
2018-12-07T12:39:09.270Z,12.06
2018-12-07T12:40:09.213Z,12.06
2018-12-07T12:41:09.156Z,12.09
2018-12-07T12:42:09.099Z,12.04
2018-12-07T12:43:09.043Z,12.04
2018-12-07T12:44:08.985Z,12.02
2018-12-07T12:45:08.926Z,11.96
2018-12-07T12:46:08.870Z,12.11
2018-12-07T12:47:08.812Z,12.02
2018-12-07T12:48:08.756Z,11.99
2018-12-07T12:49:08.698Z,12.11
2018-12-07T12:50:08.641Z,12.02
2018-12-07T12:51:08.584Z,12.01
2018-12-07T12:52:08.527Z,12.02